sensor_id;sensor_type;location;lat;lon;timestamp;pressure;altitude;pressure_sealevel;temperature;humidity
69171;BME280;56279;47.902;12.308;2023-03-29T00:00:19;95865.69;;;2.64;68.94
69171;BME280;56279;47.902;12.308;2023-03-29T00:02:21;95869.59;;;2.55;69.20
69171;BME280;56279;47.902;12.308;2023-03-29T00:04:29;95873.47;;;2.46;69.61
69171;BME280;56279;47.902;12.308;2023-03-29T00:06:31;95889.50;;;2.43;69.32
69171;BME280;56279;47.902;12.308;2023-03-29T00:08:32;95893.34;;;2.40;69.73
69171;BME280;56279;47.902;12.308;2023-03-29T00:10:34;95886.97;;;2.36;70.16
69171;BME280;56279;47.902;12.308;2023-03-29T00:12:37;95872.94;;;2.37;70.65
69171;BME280;56279;47.902;12.308;2023-03-29T00:14:38;95879.72;;;2.38;70.64
69171;BME280;56279;47.902;12.308;2023-03-29T00:16:39;95889.72;;;2.41;70.81
69171;BME280;56279;47.902;12.308;2023-03-29T00:18:40;95895.31;;;2.45;70.67
69171;BME280;56279;47.902;12.308;2023-03-29T00:20:42;95909.13;;;2.45;70.88
69171;BME280;56279;47.902;12.308;2023-03-29T00:22:43;95892.50;;;2.46;70.67
69171;BME280;56279;47.902;12.308;2023-03-29T00:24:47;95890.69;;;2.47;70.41
69171;BME280;56279;47.902;12.308;2023-03-29T00:26:49;95870.66;;;2.47;70.56
69171;BME280;56279;47.902;12.308;2023-03-29T00:28:50;95859.00;;;2.50;70.52
69171;BME280;56279;47.902;12.308;2023-03-29T00:30:51;95865.41;;;2.54;70.50
69171;BME280;56279;47.902;12.308;2023-03-29T00:32:53;95873.22;;;2.54;70.47
69171;BME280;56279;47.902;12.308;2023-03-29T00:34:55;95882.81;;;2.53;70.12
69171;BME280;56279;47.902;12.308;2023-03-29T00:36:57;95900.66;;;2.56;70.42
69171;BME280;56279;47.902;12.308;2023-03-29T00:38:58;95907.03;;;2.60;70.99
69171;BME280;56279;47.902;12.308;2023-03-29T00:41:01;95917.22;;;2.62;70.00
69171;BME280;56279;47.902;12.308;2023-03-29T00:43:04;95949.28;;;2.62;70.44
69171;BME280;56279;47.902;12.308;2023-03-29T00:45:14;95938.28;;;2.60;70.63
69171;BME280;56279;47.902;12.308;2023-03-29T00:47:20;95915.69;;;2.54;71.06
69171;BME280;56279;47.902;12.308;2023-03-29T00:49:24;95922.91;;;2.52;71.21
69171;BME280;56279;47.902;12.308;2023-03-29T00:51:29;95910.91;;;2.51;71.41
69171;BME280;56279;47.902;12.308;2023-03-29T00:53:39;95926.53;;;2.51;70.79
69171;BME280;56279;47.902;12.308;2023-03-29T00:55:51;95930.53;;;2.54;70.41
69171;BME280;56279;47.902;12.308;2023-03-29T00:57:55;95939.28;;;2.59;70.79
69171;BME280;56279;47.902;12.308;2023-03-29T00:59:59;95953.09;;;2.60;70.76
69171;BME280;56279;47.902;12.308;2023-03-29T01:02:05;95947.69;;;2.61;70.77
69171;BME280;56279;47.902;12.308;2023-03-29T01:04:12;95953.91;;;2.60;71.56
69171;BME280;56279;47.902;12.308;2023-03-29T01:06:19;96008.03;;;2.58;71.09
69171;BME280;56279;47.902;12.308;2023-03-29T01:08:28;96013.88;;;2.54;71.40
69171;BME280;56279;47.902;12.308;2023-03-29T01:10:46;96000.22;;;2.58;72.39
69171;BME280;56279;47.902;12.308;2023-03-29T01:12:53;96006.72;;;2.74;71.74
69171;BME280;56279;47.902;12.308;2023-03-29T01:15:08;96004.41;;;2.91;71.63
69171;BME280;56279;47.902;12.308;2023-03-29T01:17:11;96003.53;;;3.03;71.30
69171;BME280;56279;47.902;12.308;2023-03-29T01:19:18;95999.81;;;3.11;71.38
69171;BME280;56279;47.902;12.308;2023-03-29T01:23:56;95999.56;;;3.19;71.62
69171;BME280;56279;47.902;12.308;2023-03-29T01:28:52;95986.47;;;3.25;71.93
69171;BME280;56279;47.902;12.308;2023-03-29T01:31:09;95986.03;;;3.28;72.42
69171;BME280;56279;47.902;12.308;2023-03-29T01:33:29;95981.41;;;3.30;72.91
69171;BME280;56279;47.902;12.308;2023-03-29T01:35:40;95989.59;;;3.34;72.81
69171;BME280;56279;47.902;12.308;2023-03-29T01:37:53;95973.16;;;3.33;73.40
69171;BME280;56279;47.902;12.308;2023-03-29T01:39:56;95971.94;;;3.36;73.20
69171;BME280;56279;47.902;12.308;2023-03-29T01:44:19;95973.28;;;3.38;73.74
69171;BME280;56279;47.902;12.308;2023-03-29T01:46:27;95969.91;;;3.38;74.42
69171;BME280;56279;47.902;12.308;2023-03-29T01:48:48;95966.72;;;3.36;74.43
69171;BME280;56279;47.902;12.308;2023-03-29T01:51:35;95970.09;;;3.36;75.20
69171;BME280;56279;47.902;12.308;2023-03-29T01:53:27;95959.47;;;3.38;75.04
69171;BME280;56279;47.902;12.308;2023-03-29T01:55:42;95956.28;;;3.36;74.86
69171;BME280;56279;47.902;12.308;2023-03-29T01:57:47;95952.88;;;3.35;75.51
69171;BME280;56279;47.902;12.308;2023-03-29T01:59:54;95953.06;;;3.34;76.22
69171;BME280;56279;47.902;12.308;2023-03-29T02:02:01;95943.44;;;3.34;75.82
69171;BME280;56279;47.902;12.308;2023-03-29T02:04:09;95940.03;;;3.34;75.80
69171;BME280;56279;47.902;12.308;2023-03-29T02:06:16;95927.78;;;3.34;76.77
69171;BME280;56279;47.902;12.308;2023-03-29T02:08:21;95908.16;;;3.32;76.65
69171;BME280;56279;47.902;12.308;2023-03-29T02:10:23;95917.78;;;3.31;76.82
69171;BME280;56279;47.902;12.308;2023-03-29T02:12:26;95915.16;;;3.31;76.94
69171;BME280;56279;47.902;12.308;2023-03-29T02:14:28;95907.34;;;3.31;77.30
69171;BME280;56279;47.902;12.308;2023-03-29T02:16:37;95909.38;;;3.29;77.30
69171;BME280;56279;47.902;12.308;2023-03-29T02:18:41;95909.94;;;3.31;77.64
69171;BME280;56279;47.902;12.308;2023-03-29T02:20:45;95911.00;;;3.30;78.13
69171;BME280;56279;47.902;12.308;2023-03-29T02:22:57;95915.41;;;3.30;77.81
69171;BME280;56279;47.902;12.308;2023-03-29T02:25:03;95911.00;;;3.30;77.90
69171;BME280;56279;47.902;12.308;2023-03-29T02:27:08;95903.38;;;3.29;78.64
69171;BME280;56279;47.902;12.308;2023-03-29T02:29:10;95871.28;;;3.28;78.68
69171;BME280;56279;47.902;12.308;2023-03-29T02:31:56;95868.31;;;3.25;79.69
69171;BME280;56279;47.902;12.308;2023-03-29T02:33:50;95893.88;;;3.16;78.95
69171;BME280;56279;47.902;12.308;2023-03-29T02:36:08;95851.22;;;3.11;79.64
69171;BME280;56279;47.902;12.308;2023-03-29T02:38:10;95836.03;;;3.08;79.27
69171;BME280;56279;47.902;12.308;2023-03-29T02:40:13;95838.03;;;3.06;80.27
69171;BME280;56279;47.902;12.308;2023-03-29T02:42:17;95830.84;;;3.01;80.17
69171;BME280;56279;47.902;12.308;2023-03-29T02:44:23;95827.50;;;2.94;80.26
69171;BME280;56279;47.902;12.308;2023-03-29T02:46:26;95839.19;;;2.92;80.90
69171;BME280;56279;47.902;12.308;2023-03-29T02:48:28;95836.78;;;2.90;80.83
69171;BME280;56279;47.902;12.308;2023-03-29T02:50:37;95816.97;;;2.89;81.05
69171;BME280;56279;47.902;12.308;2023-03-29T02:52:49;95808.34;;;2.89;81.31
69171;BME280;56279;47.902;12.308;2023-03-29T02:54:53;95812.53;;;2.90;81.37
69171;BME280;56279;47.902;12.308;2023-03-29T02:56:58;95814.72;;;2.93;81.15
69171;BME280;56279;47.902;12.308;2023-03-29T02:59:00;95802.47;;;2.93;81.22
69171;BME280;56279;47.902;12.308;2023-03-29T03:01:02;95798.06;;;2.94;81.06
69171;BME280;56279;47.902;12.308;2023-03-29T03:03:07;95787.41;;;2.95;81.50
69171;BME280;56279;47.902;12.308;2023-03-29T03:05:10;95785.81;;;2.94;81.78
69171;BME280;56279;47.902;12.308;2023-03-29T03:07:12;95782.44;;;2.94;82.12
69171;BME280;56279;47.902;12.308;2023-03-29T03:09:14;95788.41;;;2.94;82.25
69171;BME280;56279;47.902;12.308;2023-03-29T03:11:17;95783.22;;;2.94;81.41
69171;BME280;56279;47.902;12.308;2023-03-29T03:13:20;95779.59;;;2.95;81.38
69171;BME280;56279;47.902;12.308;2023-03-29T03:15:22;95777.78;;;2.96;81.38
69171;BME280;56279;47.902;12.308;2023-03-29T03:17:24;95778.38;;;2.98;82.15
69171;BME280;56279;47.902;12.308;2023-03-29T03:19:25;95771.13;;;3.00;81.94
69171;BME280;56279;47.902;12.308;2023-03-29T03:21:28;95764.91;;;3.01;81.82
69171;BME280;56279;47.902;12.308;2023-03-29T03:23:31;95764.91;;;3.01;82.47
69171;BME280;56279;47.902;12.308;2023-03-29T03:25:34;95762.31;;;3.01;81.88
69171;BME280;56279;47.902;12.308;2023-03-29T03:27:37;95759.69;;;3.01;81.95
69171;BME280;56279;47.902;12.308;2023-03-29T03:29:39;95758.88;;;3.00;82.02
69171;BME280;56279;47.902;12.308;2023-03-29T03:31:44;95755.25;;;3.01;81.68
69171;BME280;56279;47.902;12.308;2023-03-29T03:33:55;95752.44;;;3.03;82.43
69171;BME280;56279;47.902;12.308;2023-03-29T03:36:14;95746.44;;;3.02;81.95
69171;BME280;56279;47.902;12.308;2023-03-29T03:38:17;95746.19;;;3.04;81.91
69171;BME280;56279;47.902;12.308;2023-03-29T03:40:22;95741.00;;;3.04;82.38
69171;BME280;56279;47.902;12.308;2023-03-29T03:42:27;95746.00;;;3.05;82.18
69171;BME280;56279;47.902;12.308;2023-03-29T03:44:30;95738.19;;;3.05;82.69
69171;BME280;56279;47.902;12.308;2023-03-29T03:47:04;95732.97;;;3.05;82.17
69171;BME280;56279;47.902;12.308;2023-03-29T03:49:09;95738.94;;;3.06;82.07
69171;BME280;56279;47.902;12.308;2023-03-29T03:51:17;95748.38;;;3.07;82.72
69171;BME280;56279;47.902;12.308;2023-03-29T03:53:19;95745.53;;;3.08;81.97
69171;BME280;56279;47.902;12.308;2023-03-29T03:55:41;95739.31;;;3.09;81.91
69171;BME280;56279;47.902;12.308;2023-03-29T03:57:48;95740.13;;;3.10;82.37
69171;BME280;56279;47.902;12.308;2023-03-29T03:59:53;95727.66;;;3.12;81.89
69171;BME280;56279;47.902;12.308;2023-03-29T04:02:01;95735.50;;;3.12;82.61
69171;BME280;56279;47.902;12.308;2023-03-29T04:04:02;95729.03;;;3.14;81.93
69171;BME280;56279;47.902;12.308;2023-03-29T04:06:05;95724.41;;;3.16;82.59
69171;BME280;56279;47.902;12.308;2023-03-29T04:08:26;95715.34;;;3.19;82.30
69171;BME280;56279;47.902;12.308;2023-03-29T04:10:54;95722.94;;;3.20;82.42
69171;BME280;56279;47.902;12.308;2023-03-29T04:13:01;95726.91;;;3.23;81.63
69171;BME280;56279;47.902;12.308;2023-03-29T04:15:04;95731.13;;;3.24;82.14
69171;BME280;56279;47.902;12.308;2023-03-29T04:17:06;95729.31;;;3.24;81.68
69171;BME280;56279;47.902;12.308;2023-03-29T04:19:28;95723.31;;;3.24;81.85
69171;BME280;56279;47.902;12.308;2023-03-29T04:21:29;95729.88;;;3.26;82.18
69171;BME280;56279;47.902;12.308;2023-03-29T04:23:30;95716.84;;;3.26;82.40
69171;BME280;56279;47.902;12.308;2023-03-29T04:25:32;95728.06;;;3.27;81.89
69171;BME280;56279;47.902;12.308;2023-03-29T04:27:33;95720.59;;;3.30;82.13
69171;BME280;56279;47.902;12.308;2023-03-29T04:29:38;95724.44;;;3.28;82.31
69171;BME280;56279;47.902;12.308;2023-03-29T04:31:53;95719.47;;;3.26;82.81
69171;BME280;56279;47.902;12.308;2023-03-29T04:34:08;95716.06;;;3.26;82.30
69171;BME280;56279;47.902;12.308;2023-03-29T04:36:10;95718.44;;;3.27;82.21
69171;BME280;56279;47.902;12.308;2023-03-29T04:38:11;95722.63;;;3.28;82.46
69171;BME280;56279;47.902;12.308;2023-03-29T04:40:13;95721.59;;;3.29;82.48
69171;BME280;56279;47.902;12.308;2023-03-29T04:42:26;95715.16;;;3.32;82.10
69171;BME280;56279;47.902;12.308;2023-03-29T04:44:28;95712.09;;;3.35;82.70
69171;BME280;56279;47.902;12.308;2023-03-29T04:46:33;95708.25;;;3.37;82.21
69171;BME280;56279;47.902;12.308;2023-03-29T04:48:40;95704.41;;;3.40;82.46
69171;BME280;56279;47.902;12.308;2023-03-29T04:50:45;95710.19;;;3.42;82.56
69171;BME280;56279;47.902;12.308;2023-03-29T04:52:47;95707.38;;;3.43;82.21
69171;BME280;56279;47.902;12.308;2023-03-29T04:54:51;95700.09;;;3.45;82.46
69171;BME280;56279;47.902;12.308;2023-03-29T04:57:07;95702.50;;;3.47;82.81
69171;BME280;56279;47.902;12.308;2023-03-29T04:59:35;95701.47;;;3.48;82.19
69171;BME280;56279;47.902;12.308;2023-03-29T05:01:46;95697.88;;;3.49;82.11
69171;BME280;56279;47.902;12.308;2023-03-29T05:03:48;95694.81;;;3.52;82.56
69171;BME280;56279;47.902;12.308;2023-03-29T05:06:03;95696.38;;;3.53;82.02
69171;BME280;56279;47.902;12.308;2023-03-29T05:08:08;95696.75;;;3.57;82.31
69171;BME280;56279;47.902;12.308;2023-03-29T05:10:29;95697.31;;;3.59;82.00
69171;BME280;56279;47.902;12.308;2023-03-29T05:12:31;95699.94;;;3.59;82.50
69171;BME280;56279;47.902;12.308;2023-03-29T05:14:33;95700.94;;;3.58;82.25
69171;BME280;56279;47.902;12.308;2023-03-29T05:16:35;95700.94;;;3.58;82.75
69171;BME280;56279;47.902;12.308;2023-03-29T05:18:40;95704.34;;;3.58;82.60
69171;BME280;56279;47.902;12.308;2023-03-29T05:20:41;95703.91;;;3.61;82.13
69171;BME280;56279;47.902;12.308;2023-03-29T05:22:47;95701.06;;;3.63;81.90
69171;BME280;56279;47.902;12.308;2023-03-29T05:25:16;95700.06;;;3.64;81.56
69171;BME280;56279;47.902;12.308;2023-03-29T05:27:19;95694.38;;;3.67;81.75
69171;BME280;56279;47.902;12.308;2023-03-29T05:29:33;95688.16;;;3.68;81.64
69171;BME280;56279;47.902;12.308;2023-03-29T05:31:52;95686.09;;;3.70;81.58
69171;BME280;56279;47.902;12.308;2023-03-29T05:33:54;95695.31;;;3.72;81.28
69171;BME280;56279;47.902;12.308;2023-03-29T05:36:05;95692.25;;;3.75;80.77
69171;BME280;56279;47.902;12.308;2023-03-29T05:38:08;95690.78;;;3.79;81.21
69171;BME280;56279;47.902;12.308;2023-03-29T05:40:10;95691.91;;;3.83;81.38
69171;BME280;56279;47.902;12.308;2023-03-29T05:42:31;95698.28;;;3.87;80.86
69171;BME280;56279;47.902;12.308;2023-03-29T05:44:39;95678.16;;;3.88;81.10
69171;BME280;56279;47.902;12.308;2023-03-29T05:46:49;95681.16;;;3.91;81.54
69171;BME280;56279;47.902;12.308;2023-03-29T05:48:51;95683.06;;;3.96;80.96
69171;BME280;56279;47.902;12.308;2023-03-29T05:50:55;95681.59;;;4.00;81.17
69171;BME280;56279;47.902;12.308;2023-03-29T05:52:58;95692.72;;;4.07;80.62
69171;BME280;56279;47.902;12.308;2023-03-29T05:55:02;95690.78;;;4.14;80.89
69171;BME280;56279;47.902;12.308;2023-03-29T05:57:04;95687.63;;;4.24;80.67
69171;BME280;56279;47.902;12.308;2023-03-29T05:59:06;95678.41;;;4.33;80.45
69171;BME280;56279;47.902;12.308;2023-03-29T06:01:12;95671.25;;;4.40;80.01
69171;BME280;56279;47.902;12.308;2023-03-29T06:03:44;95677.94;;;4.47;79.87
69171;BME280;56279;47.902;12.308;2023-03-29T06:05:48;95676.22;;;4.53;79.73
69171;BME280;56279;47.902;12.308;2023-03-29T06:07:55;95673.72;;;4.58;79.61
69171;BME280;56279;47.902;12.308;2023-03-29T06:10:25;95672.25;;;4.62;79.27
69171;BME280;56279;47.902;12.308;2023-03-29T06:12:35;95668.69;;;4.68;79.12
69171;BME280;56279;47.902;12.308;2023-03-29T06:14:39;95665.72;;;4.76;78.81
69171;BME280;56279;47.902;12.308;2023-03-29T06:16:52;95669.06;;;4.88;78.63
69171;BME280;56279;47.902;12.308;2023-03-29T06:18:54;95662.44;;;4.97;78.36
69171;BME280;56279;47.902;12.308;2023-03-29T06:20:56;95660.72;;;5.03;78.09
69171;BME280;56279;47.902;12.308;2023-03-29T06:22:57;95659.56;;;5.10;77.89
69171;BME280;56279;47.902;12.308;2023-03-29T06:24:59;95656.81;;;5.17;77.83
69171;BME280;56279;47.902;12.308;2023-03-29T06:27:04;95658.03;;;5.26;77.84
69171;BME280;56279;47.902;12.308;2023-03-29T06:29:06;95651.38;;;5.35;77.70
69171;BME280;56279;47.902;12.308;2023-03-29T06:31:09;95649.94;;;5.44;77.55
69171;BME280;56279;47.902;12.308;2023-03-29T06:33:14;95654.09;;;5.56;77.36
69171;BME280;56279;47.902;12.308;2023-03-29T06:35:29;95656.41;;;5.70;77.16
69171;BME280;56279;47.902;12.308;2023-03-29T06:37:38;95657.66;;;5.84;76.64
69171;BME280;56279;47.902;12.308;2023-03-29T06:39:50;95655.56;;;5.97;76.34
69171;BME280;56279;47.902;12.308;2023-03-29T06:42:00;95655.22;;;6.10;76.09
69171;BME280;56279;47.902;12.308;2023-03-29T06:44:24;95657.50;;;6.23;76.01
69171;BME280;56279;47.902;12.308;2023-03-29T06:46:44;95657.34;;;6.30;75.45
69171;BME280;56279;47.902;12.308;2023-03-29T06:48:49;95666.31;;;6.34;75.67
69171;BME280;56279;47.902;12.308;2023-03-29T06:50:52;95672.41;;;6.40;75.33
69171;BME280;56279;47.902;12.308;2023-03-29T06:52:57;95671.69;;;6.44;75.64
69171;BME280;56279;47.902;12.308;2023-03-29T06:54:59;95677.25;;;6.48;75.22
69171;BME280;56279;47.902;12.308;2023-03-29T06:57:02;95678.34;;;6.52;75.34
69171;BME280;56279;47.902;12.308;2023-03-29T06:59:08;95687.81;;;6.53;75.36
69171;BME280;56279;47.902;12.308;2023-03-29T07:01:30;95682.56;;;6.53;75.60
69171;BME280;56279;47.902;12.308;2023-03-29T07:03:38;95676.78;;;6.51;75.67
69171;BME280;56279;47.902;12.308;2023-03-29T07:05:41;95692.72;;;6.49;75.81
69171;BME280;56279;47.902;12.308;2023-03-29T07:07:46;95691.94;;;6.49;75.52
69171;BME280;56279;47.902;12.308;2023-03-29T07:10:03;95708.38;;;6.44;75.62
69171;BME280;56279;47.902;12.308;2023-03-29T07:12:24;95701.56;;;6.43;75.62
69171;BME280;56279;47.902;12.308;2023-03-29T07:14:31;95695.84;;;6.46;75.59
69171;BME280;56279;47.902;12.308;2023-03-29T07:16:33;95702.66;;;6.47;75.57
69171;BME280;56279;47.902;12.308;2023-03-29T07:18:50;95705.91;;;6.54;75.13
69171;BME280;56279;47.902;12.308;2023-03-29T07:21:14;95712.03;;;6.60;75.15
69171;BME280;56279;47.902;12.308;2023-03-29T07:23:16;95713.66;;;6.66;74.75
69171;BME280;56279;47.902;12.308;2023-03-29T07:25:20;95722.41;;;6.71;74.60
69171;BME280;56279;47.902;12.308;2023-03-29T07:27:22;95726.91;;;6.76;74.08
69171;BME280;56279;47.902;12.308;2023-03-29T07:29:24;95726.72;;;6.82;73.70
69171;BME280;56279;47.902;12.308;2023-03-29T07:31:26;95737.03;;;6.89;73.65
69171;BME280;56279;47.902;12.308;2023-03-29T07:33:52;95734.56;;;6.99;73.31
69171;BME280;56279;47.902;12.308;2023-03-29T07:35:54;95743.59;;;7.08;73.37
69171;BME280;56279;47.902;12.308;2023-03-29T07:37:56;95732.91;;;7.15;72.71
69171;BME280;56279;47.902;12.308;2023-03-29T07:39:59;95743.53;;;7.25;72.10
69171;BME280;56279;47.902;12.308;2023-03-29T07:42:18;95739.97;;;7.36;72.24
69171;BME280;56279;47.902;12.308;2023-03-29T07:44:21;95734.53;;;7.42;71.82
69171;BME280;56279;47.902;12.308;2023-03-29T07:46:24;95740.38;;;7.49;71.20
69171;BME280;56279;47.902;12.308;2023-03-29T07:48:26;95743.59;;;7.56;71.56
69171;BME280;56279;47.902;12.308;2023-03-29T07:50:33;95734.22;;;7.65;71.05
69171;BME280;56279;47.902;12.308;2023-03-29T07:52:37;95734.84;;;7.73;70.67
69171;BME280;56279;47.902;12.308;2023-03-29T07:54:40;95735.19;;;7.81;70.50
69171;BME280;56279;47.902;12.308;2023-03-29T07:57:10;95732.16;;;7.94;70.63
69171;BME280;56279;47.902;12.308;2023-03-29T07:59:18;95745.38;;;8.04;70.47
69171;BME280;56279;47.902;12.308;2023-03-29T08:01:27;95743.63;;;8.15;70.08
69171;BME280;56279;47.902;12.308;2023-03-29T08:03:52;95736.09;;;8.23;69.70
69171;BME280;56279;47.902;12.308;2023-03-29T08:06:01;95734.34;;;8.34;70.25
69171;BME280;56279;47.902;12.308;2023-03-29T08:08:03;95726.00;;;8.42;69.64
69171;BME280;56279;47.902;12.308;2023-03-29T08:10:25;95729.19;;;8.49;70.01
69171;BME280;56279;47.902;12.308;2023-03-29T08:12:54;95730.28;;;8.53;69.75
69171;BME280;56279;47.902;12.308;2023-03-29T08:15:04;95740.53;;;8.55;70.34
69171;BME280;56279;47.902;12.308;2023-03-29T08:17:08;95738.44;;;8.57;69.70
69171;BME280;56279;47.902;12.308;2023-03-29T08:19:17;95735.31;;;8.60;70.43
69171;BME280;56279;47.902;12.308;2023-03-29T08:21:28;95732.72;;;8.65;70.20
69171;BME280;56279;47.902;12.308;2023-03-29T08:23:29;95742.19;;;8.71;70.51
69171;BME280;56279;47.902;12.308;2023-03-29T08:25:45;95734.88;;;8.78;70.22
69171;BME280;56279;47.902;12.308;2023-03-29T08:27:47;95740.75;;;8.90;70.14
69171;BME280;56279;47.902;12.308;2023-03-29T08:29:56;95746.31;;;9.03;70.05
69171;BME280;56279;47.902;12.308;2023-03-29T08:31:58;95739.81;;;9.16;69.58
69171;BME280;56279;47.902;12.308;2023-03-29T08:33:59;95739.31;;;9.19;69.12
69171;BME280;56279;47.902;12.308;2023-03-29T08:36:22;95743.25;;;9.17;68.98
69171;BME280;56279;47.902;12.308;2023-03-29T08:38:26;95742.41;;;9.11;69.29
69171;BME280;56279;47.902;12.308;2023-03-29T08:40:28;95752.38;;;8.99;69.20
69171;BME280;56279;47.902;12.308;2023-03-29T08:48:00;95746.88;;;8.59;69.43
69171;BME280;56279;47.902;12.308;2023-03-29T08:50:08;95750.50;;;8.53;69.25
69171;BME280;56279;47.902;12.308;2023-03-29T08:54:45;95744.97;;;8.49;69.81
69171;BME280;56279;47.902;12.308;2023-03-29T08:57:22;95741.06;;;8.57;69.93
69171;BME280;56279;47.902;12.308;2023-03-29T08:59:30;95743.75;;;8.67;69.09
69171;BME280;56279;47.902;12.308;2023-03-29T09:01:35;95739.09;;;8.79;68.76
69171;BME280;56279;47.902;12.308;2023-03-29T09:04:02;95744.19;;;8.95;68.47
69171;BME280;56279;47.902;12.308;2023-03-29T09:06:20;95741.88;;;9.09;67.92
69171;BME280;56279;47.902;12.308;2023-03-29T09:08:23;95747.22;;;9.19;67.55
69171;BME280;56279;47.902;12.308;2023-03-29T09:10:38;95740.94;;;9.35;67.68
69171;BME280;56279;47.902;12.308;2023-03-29T09:15:18;95731.53;;;9.64;66.39
69171;BME280;56279;47.902;12.308;2023-03-29T09:17:50;95740.50;;;9.73;66.50
69171;BME280;56279;47.902;12.308;2023-03-29T09:22:27;95730.25;;;9.92;66.09
69171;BME280;56279;47.902;12.308;2023-03-29T09:25:08;95724.25;;;10.17;65.38
69171;BME280;56279;47.902;12.308;2023-03-29T09:30:11;95722.38;;;10.53;64.16
69171;BME280;56279;47.902;12.308;2023-03-29T09:32:35;95727.34;;;10.69;63.92
69171;BME280;56279;47.902;12.308;2023-03-29T09:37:24;95720.75;;;10.77;63.07
69171;BME280;56279;47.902;12.308;2023-03-29T09:39:30;95724.97;;;10.78;62.39
69171;BME280;56279;47.902;12.308;2023-03-29T09:42:04;95719.72;;;10.73;62.13
69171;BME280;56279;47.902;12.308;2023-03-29T09:44:32;95727.34;;;10.69;61.96
69171;BME280;56279;47.902;12.308;2023-03-29T09:46:54;95717.34;;;10.61;62.37
69171;BME280;56279;47.902;12.308;2023-03-29T09:49:04;95720.25;;;10.60;62.06
69171;BME280;56279;47.902;12.308;2023-03-29T09:51:09;95721.03;;;10.55;62.34
69171;BME280;56279;47.902;12.308;2023-03-29T09:53:14;95728.72;;;10.47;62.46
69171;BME280;56279;47.902;12.308;2023-03-29T09:55:25;95724.50;;;10.40;62.72
69171;BME280;56279;47.902;12.308;2023-03-29T09:57:38;95728.47;;;10.28;62.64
69171;BME280;56279;47.902;12.308;2023-03-29T09:59:43;95720.53;;;10.18;62.76
69171;BME280;56279;47.902;12.308;2023-03-29T10:01:45;95720.31;;;10.14;63.25
69171;BME280;56279;47.902;12.308;2023-03-29T10:03:52;95713.19;;;10.15;63.15
69171;BME280;56279;47.902;12.308;2023-03-29T10:05:55;95716.88;;;10.24;63.59
69171;BME280;56279;47.902;12.308;2023-03-29T10:07:59;95724.25;;;10.37;62.71
69171;BME280;56279;47.902;12.308;2023-03-29T10:10:01;95722.91;;;10.45;62.46
69171;BME280;56279;47.902;12.308;2023-03-29T10:12:05;95728.44;;;10.53;62.06
69171;BME280;56279;47.902;12.308;2023-03-29T10:14:18;95718.41;;;10.60;62.22
69171;BME280;56279;47.902;12.308;2023-03-29T10:16:28;95719.44;;;10.74;61.96
69171;BME280;56279;47.902;12.308;2023-03-29T10:18:31;95719.41;;;10.84;61.87
69171;BME280;56279;47.902;12.308;2023-03-29T10:20:35;95718.03;;;10.97;61.88
69171;BME280;56279;47.902;12.308;2023-03-29T10:22:45;95709.88;;;11.03;61.44
69171;BME280;56279;47.902;12.308;2023-03-29T10:24:50;95711.69;;;11.03;61.32
69171;BME280;56279;47.902;12.308;2023-03-29T10:27:00;95701.44;;;10.96;61.47
69171;BME280;56279;47.902;12.308;2023-03-29T10:29:04;95702.75;;;10.94;61.37
69171;BME280;56279;47.902;12.308;2023-03-29T10:31:16;95705.13;;;10.90;61.90
69171;BME280;56279;47.902;12.308;2023-03-29T10:33:21;95698.81;;;10.91;61.42
69171;BME280;56279;47.902;12.308;2023-03-29T10:35:29;95706.44;;;10.98;61.69
69171;BME280;56279;47.902;12.308;2023-03-29T10:37:34;95692.41;;;11.07;61.18
69171;BME280;56279;47.902;12.308;2023-03-29T10:39:40;95693.41;;;11.22;61.17
69171;BME280;56279;47.902;12.308;2023-03-29T10:41:42;95692.78;;;11.40;60.43
69171;BME280;56279;47.902;12.308;2023-03-29T10:43:46;95689.50;;;11.58;60.59
69171;BME280;56279;47.902;12.308;2023-03-29T10:45:55;95691.59;;;11.66;59.13
69171;BME280;56279;47.902;12.308;2023-03-29T10:47:57;95694.22;;;11.71;58.91
69171;BME280;56279;47.902;12.308;2023-03-29T10:49:59;95687.31;;;11.75;59.29
69171;BME280;56279;47.902;12.308;2023-03-29T10:52:01;95685.44;;;11.81;58.63
69171;BME280;56279;47.902;12.308;2023-03-29T10:54:08;95676.44;;;11.82;58.44
69171;BME280;56279;47.902;12.308;2023-03-29T10:56:25;95669.81;;;11.84;58.05
69171;BME280;56279;47.902;12.308;2023-03-29T10:58:38;95669.00;;;11.84;57.95
69171;BME280;56279;47.902;12.308;2023-03-29T11:00:56;95666.06;;;11.90;58.13
69171;BME280;56279;47.902;12.308;2023-03-29T11:05:30;95657.88;;;12.20;57.59
69171;BME280;56279;47.902;12.308;2023-03-29T11:10:49;95661.56;;;12.53;56.70
69171;BME280;56279;47.902;12.308;2023-03-29T11:17:37;95646.91;;;12.84;55.04
69171;BME280;56279;47.902;12.308;2023-03-29T11:26:09;95640.88;;;12.79;55.06
69171;BME280;56279;47.902;12.308;2023-03-29T11:28:24;95640.94;;;12.97;54.65
69171;BME280;56279;47.902;12.308;2023-03-29T11:30:38;95636.75;;;13.15;54.49
69171;BME280;56279;47.902;12.308;2023-03-29T11:33:06;95643.81;;;13.43;54.54
69171;BME280;56279;47.902;12.308;2023-03-29T11:42:19;95632.91;;;13.63;52.17
69171;BME280;56279;47.902;12.308;2023-03-29T11:44:33;95626.53;;;13.64;52.63
69171;BME280;56279;47.902;12.308;2023-03-29T11:46:43;95630.28;;;13.77;52.47
69171;BME280;56279;47.902;12.308;2023-03-29T11:48:58;95631.25;;;13.86;52.43
69171;BME280;56279;47.902;12.308;2023-03-29T11:53:25;95616.19;;;13.81;52.00
69171;BME280;56279;47.902;12.308;2023-03-29T11:55:34;95619.69;;;13.77;51.73
69171;BME280;56279;47.902;12.308;2023-03-29T11:57:46;95626.94;;;13.71;51.65
69171;BME280;56279;47.902;12.308;2023-03-29T12:01:54;95618.56;;;13.64;51.93
69171;BME280;56279;47.902;12.308;2023-03-29T12:04:07;95628.63;;;13.67;51.81
69171;BME280;56279;47.902;12.308;2023-03-29T12:06:32;95619.50;;;13.55;51.57
69171;BME280;56279;47.902;12.308;2023-03-29T12:08:47;95621.00;;;13.42;51.28
69171;BME280;56279;47.902;12.308;2023-03-29T12:11:09;95619.50;;;13.36;51.80